createdAt,value
2023-01-17T00:00:03.608Z,7.30
2023-01-17T00:02:34.646Z,7.30
2023-01-17T00:05:20.740Z,7.30
2023-01-17T00:08:08.483Z,7.20
2023-01-17T00:10:42.597Z,7.20
2023-01-17T00:13:11.149Z,7.20
2023-01-17T00:15:40.138Z,7.30
2023-01-17T00:18:08.769Z,7.30
2023-01-17T00:20:54.974Z,7.20
2023-01-17T00:23:55.821Z,7.20
2023-01-17T00:26:24.414Z,7.20
2023-01-17T00:28:51.841Z,7.20
2023-01-17T00:31:20.295Z,7.20
2023-01-17T00:33:47.714Z,7.20
2023-01-17T00:36:15.090Z,7.20
2023-01-17T00:38:43.840Z,7.20
2023-01-17T00:41:12.463Z,7.20
2023-01-17T00:43:58.537Z,7.20
2023-01-17T00:46:45.236Z,7.20
2023-01-17T00:49:31.663Z,7.20
2023-01-17T00:52:17.344Z,7.20
2023-01-17T00:55:05.082Z,7.20
2023-01-17T00:57:50.829Z,7.20
2023-01-17T01:00:37.135Z,7.20
2023-01-17T01:03:27.819Z,7.20
2023-01-17T01:06:14.214Z,7.20
2023-01-17T01:09:01.501Z,7.20
2023-01-17T01:11:49.341Z,7.20
2023-01-17T01:14:35.362Z,7.20
2023-01-17T01:17:21.442Z,7.20
2023-01-17T01:20:07.381Z,7.20
2023-01-17T01:22:53.507Z,7.20
2023-01-17T01:25:39.801Z,7.20
2023-01-17T01:28:31.218Z,7.20
2023-01-17T01:31:18.636Z,7.20
2023-01-17T01:33:47.327Z,7.20
2023-01-17T01:36:15.965Z,7.20
2023-01-17T01:38:44.657Z,7.20
2023-01-17T01:41:13.446Z,7.20
2023-01-17T01:43:46.744Z,7.20
2023-01-17T01:46:19.335Z,7.20
2023-01-17T01:48:53.262Z,7.20
2023-01-17T01:51:26.959Z,7.20
2023-01-17T01:54:00.856Z,7.20
2023-01-17T01:56:32.150Z,7.20
2023-01-17T01:59:05.344Z,7.20
2023-01-17T02:01:37.465Z,7.20
2023-01-17T02:04:10.132Z,7.20
2023-01-17T02:06:40.987Z,7.20
2023-01-17T02:09:12.484Z,7.20
2023-01-17T02:11:42.224Z,7.20
2023-01-17T02:14:16.537Z,7.10
2023-01-17T02:16:57.262Z,7.20
2023-01-17T02:20:09.665Z,7.20
2023-01-17T02:23:35.517Z,7.20
2023-01-17T02:26:34.567Z,7.10
2023-01-17T02:29:31.205Z,7.10
2023-01-17T02:32:08.449Z,7.20
2023-01-17T02:34:44.359Z,7.10
2023-01-17T02:37:19.815Z,7.10
2023-01-17T02:39:53.063Z,7.10
2023-01-17T02:42:26.651Z,7.10
2023-01-17T02:44:55.235Z,7.10
2023-01-17T02:47:26.867Z,7.10
2023-01-17T02:50:05.108Z,7.10
2023-01-17T02:52:57.276Z,7.10
2023-01-17T02:55:37.513Z,7.10
2023-01-17T02:58:20.443Z,7.10
2023-01-17T03:01:01.078Z,7.20
2023-01-17T03:03:35.735Z,7.10
2023-01-17T03:06:12.412Z,7.20
2023-01-17T03:08:42.713Z,7.10
2023-01-17T03:11:11.373Z,7.10
2023-01-17T03:13:41.315Z,7.10
2023-01-17T03:16:15.169Z,7.10
2023-01-17T03:18:45.251Z,7.10
2023-01-17T03:21:13.825Z,7.10
2023-01-17T03:23:42.385Z,7.10
2023-01-17T03:26:10.866Z,7.10
2023-01-17T03:28:39.423Z,7.10
2023-01-17T03:31:08.343Z,7.10
2023-01-17T03:33:36.959Z,7.10
2023-01-17T03:36:07.512Z,7.10
2023-01-17T03:38:37.412Z,7.10
2023-01-17T03:41:06.571Z,7.10
2023-01-17T03:43:35.246Z,7.10
2023-01-17T03:46:04.810Z,7.10
2023-01-17T03:48:33.722Z,7.10
2023-01-17T03:51:02.317Z,7.10
2023-01-17T03:53:32.241Z,7.10
2023-01-17T03:56:01.462Z,7.10
2023-01-17T03:58:30.039Z,7.10
2023-01-17T04:00:58.676Z,7.10
2023-01-17T04:03:27.317Z,7.10
2023-01-17T04:05:55.983Z,7.10
2023-01-17T04:08:24.663Z,7.10
2023-01-17T04:10:54.628Z,7.10
2023-01-17T04:13:23.186Z,7.10
2023-01-17T04:15:53.103Z,7.10
2023-01-17T04:18:23.187Z,7.10
2023-01-17T04:20:52.224Z,7.10
2023-01-17T04:23:20.914Z,7.10
2023-01-17T04:25:49.544Z,7.10
2023-01-17T04:28:19.497Z,7.10
2023-01-17T04:30:48.024Z,7.10
2023-01-17T04:33:16.678Z,7.10
2023-01-17T04:35:45.269Z,7.00
2023-01-17T04:38:13.815Z,7.10
2023-01-17T04:40:42.377Z,7.10
2023-01-17T04:43:10.925Z,7.10
2023-01-17T04:45:41.229Z,7.10
2023-01-17T04:48:12.593Z,7.00
2023-01-17T04:50:41.504Z,7.00
2023-01-17T04:53:10.001Z,7.10
2023-01-17T04:55:38.538Z,7.10
2023-01-17T04:58:07.063Z,7.00
2023-01-17T05:00:35.579Z,7.00
2023-01-17T05:03:05.576Z,7.00
2023-01-17T05:05:34.097Z,7.10
2023-01-17T05:08:02.658Z,7.00
2023-01-17T05:10:31.191Z,7.00
2023-01-17T05:13:01.039Z,7.00
2023-01-17T05:15:29.997Z,7.00
2023-01-17T05:17:58.620Z,7.00
2023-01-17T05:20:28.838Z,7.00
2023-01-17T05:22:58.560Z,7.00
2023-01-17T05:25:28.769Z,7.00
2023-01-17T05:27:57.287Z,7.00
2023-01-17T05:30:25.857Z,7.00
2023-01-17T05:32:56.409Z,7.00
2023-01-17T05:35:26.503Z,7.00
2023-01-17T05:37:56.831Z,7.00
2023-01-17T05:40:27.063Z,7.00
2023-01-17T05:43:00.918Z,7.00
2023-01-17T05:45:31.765Z,7.00
2023-01-17T05:48:00.569Z,7.00
2023-01-17T05:50:31.806Z,7.00
2023-01-17T05:53:03.749Z,7.00
2023-01-17T05:55:33.547Z,7.00
2023-01-17T05:58:03.053Z,7.00
2023-01-17T06:00:32.914Z,7.00
2023-01-17T06:03:02.320Z,7.00
2023-01-17T06:05:31.205Z,7.00
2023-01-17T06:08:01.221Z,7.00
2023-01-17T06:10:30.560Z,7.00
2023-01-17T06:13:03.737Z,7.00
2023-01-17T06:15:32.597Z,7.00
2023-01-17T06:18:06.425Z,7.00
2023-01-17T06:20:35.160Z,7.00
2023-01-17T06:23:06.072Z,7.00
2023-01-17T06:25:38.011Z,7.00
2023-01-17T06:28:09.477Z,7.00
2023-01-17T06:30:38.070Z,7.00
2023-01-17T06:33:06.811Z,7.00
2023-01-17T06:35:35.347Z,7.00
2023-01-17T06:38:05.846Z,7.00
2023-01-17T06:40:34.533Z,7.00
2023-01-17T06:43:03.732Z,7.00
2023-01-17T06:45:33.283Z,7.00
2023-01-17T06:48:03.984Z,7.00
2023-01-17T06:50:33.180Z,7.00
2023-01-17T06:53:07.833Z,7.00
2023-01-17T06:55:40.254Z,7.00
2023-01-17T06:58:10.679Z,7.00
2023-01-17T07:00:40.970Z,7.00
2023-01-17T07:03:20.028Z,7.00
2023-01-17T07:05:48.636Z,7.00
2023-01-17T07:08:19.377Z,6.90
2023-01-17T07:10:49.415Z,7.00
2023-01-17T07:13:18.139Z,6.90
2023-01-17T07:15:46.801Z,6.90
2023-01-17T07:18:20.564Z,6.90
2023-01-17T07:20:49.187Z,6.90
2023-01-17T07:23:20.261Z,7.00
2023-01-17T07:25:53.453Z,6.90
2023-01-17T07:28:22.186Z,6.90
2023-01-17T07:30:50.876Z,6.90
2023-01-17T07:33:19.795Z,6.90
2023-01-17T07:35:48.457Z,6.90
2023-01-17T07:38:20.032Z,6.90
2023-01-17T07:40:48.599Z,6.90
2023-01-17T07:43:17.382Z,6.90
2023-01-17T07:45:49.602Z,6.90
2023-01-17T07:48:18.756Z,6.90
2023-01-17T07:50:52.213Z,6.90
2023-01-17T07:53:22.427Z,6.90
2023-01-17T07:55:54.619Z,6.90
2023-01-17T07:58:23.689Z,6.90
2023-01-17T08:00:52.570Z,6.90
2023-01-17T08:03:21.122Z,6.90
2023-01-17T08:05:57.698Z,6.90
2023-01-17T08:08:27.687Z,6.90
2023-01-17T08:10:56.319Z,6.90
2023-01-17T08:13:25.066Z,6.90
2023-01-17T08:15:54.593Z,6.90
2023-01-17T08:18:23.171Z,6.90
2023-01-17T08:20:51.675Z,6.90
2023-01-17T08:23:20.170Z,6.90
2023-01-17T08:25:50.318Z,6.90
2023-01-17T08:28:19.829Z,6.90
2023-01-17T08:30:48.437Z,6.90
2023-01-17T08:33:17.191Z,6.90
2023-01-17T08:35:53.439Z,6.90
2023-01-17T08:38:23.827Z,6.90
2023-01-17T08:40:53.666Z,6.90
2023-01-17T08:43:22.237Z,6.90
2023-01-17T08:45:51.756Z,6.80
2023-01-17T08:48:23.875Z,6.90
2023-01-17T08:50:52.421Z,6.80
2023-01-17T08:53:24.022Z,6.80
2023-01-17T08:56:00.928Z,6.90
2023-01-17T08:58:30.915Z,6.80
2023-01-17T09:01:02.447Z,6.80
2023-01-17T09:03:31.325Z,6.80
2023-01-17T09:06:04.002Z,6.80
2023-01-17T09:08:32.463Z,6.80
2023-01-17T09:11:04.923Z,6.90
2023-01-17T09:13:33.542Z,6.80
2023-01-17T09:16:02.305Z,6.90
2023-01-17T09:18:32.010Z,6.90
2023-01-17T09:21:00.695Z,6.90
2023-01-17T09:23:31.349Z,6.90
2023-01-17T09:26:02.050Z,6.90
2023-01-17T09:28:30.604Z,6.90
2023-01-17T09:30:59.306Z,6.90
2023-01-17T09:33:27.830Z,6.90
2023-01-17T09:35:56.279Z,6.90
2023-01-17T09:38:24.821Z,6.90
2023-01-17T09:40:53.414Z,6.90
2023-01-17T09:43:27.829Z,6.90
2023-01-17T09:45:56.473Z,6.90
2023-01-17T09:48:37.333Z,6.90
2023-01-17T09:51:10.941Z,6.90
2023-01-17T09:53:41.864Z,6.90
2023-01-17T09:56:15.771Z,6.90
2023-01-17T09:58:54.020Z,6.90
2023-01-17T10:01:33.139Z,6.90
2023-01-17T10:04:18.919Z,6.90
2023-01-17T10:06:59.518Z,6.90
2023-01-17T10:09:39.718Z,6.90
2023-01-17T10:12:19.868Z,7.00
2023-01-17T10:15:07.190Z,6.90
2023-01-17T10:17:48.081Z,7.00
2023-01-17T10:20:39.449Z,6.90
2023-01-17T10:23:43.158Z,7.00
2023-01-17T10:26:15.856Z,6.90
2023-01-17T10:28:48.854Z,7.00
2023-01-17T10:31:23.876Z,6.90
2023-01-17T10:33:54.450Z,6.90
2023-01-17T10:36:25.652Z,6.90
2023-01-17T10:38:56.936Z,6.90
2023-01-17T10:41:30.357Z,6.90
2023-01-17T10:44:07.285Z,6.90
2023-01-17T10:46:41.648Z,6.90
2023-01-17T10:49:17.865Z,6.90
2023-01-17T10:52:22.243Z,6.90
2023-01-17T10:54:58.759Z,6.90
2023-01-17T10:57:29.149Z,6.90
2023-01-17T11:00:01.055Z,6.90
2023-01-17T11:02:33.575Z,6.90
2023-01-17T11:05:21.588Z,6.90
2023-01-17T11:07:59.362Z,6.90
2023-01-17T11:10:40.369Z,6.90
2023-01-17T11:13:23.670Z,6.90
2023-01-17T11:15:57.596Z,6.90
2023-01-17T11:18:30.416Z,6.90
2023-01-17T11:21:12.228Z,6.90
2023-01-17T11:23:43.176Z,6.90
2023-01-17T11:26:13.961Z,6.90
2023-01-17T11:28:42.964Z,6.90
2023-01-17T11:31:27.197Z,6.90
2023-01-17T11:34:17.312Z,6.90
2023-01-17T11:36:46.095Z,6.90
2023-01-17T11:39:27.752Z,6.90
2023-01-17T11:41:56.590Z,6.90
2023-01-17T11:44:27.923Z,6.90
2023-01-17T11:47:19.271Z,6.90
2023-01-17T11:49:50.179Z,6.90
2023-01-17T11:52:24.389Z,6.90
2023-01-17T11:54:55.347Z,6.90
2023-01-17T11:57:26.932Z,6.90
2023-01-17T12:00:04.999Z,6.90
2023-01-17T12:03:13.631Z,6.90
2023-01-17T12:05:53.570Z,6.80
2023-01-17T12:08:43.318Z,6.90
2023-01-17T12:11:17.708Z,6.90
2023-01-17T12:14:01.318Z,6.90
2023-01-17T12:16:51.276Z,6.80
2023-01-17T12:19:39.086Z,6.90
2023-01-17T12:22:29.435Z,6.80
2023-01-17T12:25:14.911Z,6.80
2023-01-17T12:27:53.081Z,6.80
2023-01-17T12:30:40.135Z,6.80
2023-01-17T12:33:21.079Z,6.80
2023-01-17T12:35:52.983Z,6.80
2023-01-17T12:38:32.934Z,6.80
2023-01-17T12:41:07.368Z,6.80
2023-01-17T12:43:40.747Z,6.80
2023-01-17T12:46:21.043Z,6.80
2023-01-17T12:48:53.650Z,6.80
2023-01-17T12:51:29.561Z,6.80
2023-01-17T12:54:07.835Z,6.80
2023-01-17T12:56:41.794Z,6.80
2023-01-17T12:59:17.672Z,6.80
2023-01-17T13:01:57.875Z,6.80
2023-01-17T13:04:30.749Z,6.80
2023-01-17T13:07:10.204Z,6.80
2023-01-17T13:09:47.268Z,6.80
2023-01-17T13:12:17.961Z,6.80
2023-01-17T13:14:47.771Z,6.80
2023-01-17T13:17:28.314Z,6.80
2023-01-17T13:20:01.016Z,6.80
2023-01-17T13:22:29.943Z,6.80
2023-01-17T13:25:13.560Z,6.80
2023-01-17T13:28:04.567Z,6.80
2023-01-17T13:31:03.426Z,6.80
2023-01-17T13:33:45.552Z,6.80
2023-01-17T13:36:36.706Z,6.80
2023-01-17T13:39:52.956Z,6.80
2023-01-17T13:42:31.426Z,6.80
2023-01-17T13:44:59.974Z,6.80
2023-01-17T13:47:42.362Z,6.80
2023-01-17T13:50:47.341Z,6.80
2023-01-17T13:53:57.847Z,6.80
2023-01-17T13:56:37.552Z,6.80
2023-01-17T13:59:29.300Z,6.80
2023-01-17T14:01:58.200Z,6.80
2023-01-17T14:04:42.174Z,6.80
2023-01-17T14:07:21.298Z,6.80
2023-01-17T14:09:51.437Z,6.80
2023-01-17T14:12:31.917Z,6.80
2023-01-17T14:15:03.750Z,6.70
2023-01-17T14:17:55.752Z,6.70
2023-01-17T14:20:42.453Z,6.70
2023-01-17T14:23:34.120Z,6.80
2023-01-17T14:26:18.873Z,6.80
2023-01-17T14:28:48.251Z,6.80
2023-01-17T14:31:19.366Z,6.80
2023-01-17T14:33:50.784Z,6.80
2023-01-17T14:36:26.966Z,6.80
2023-01-17T14:38:55.423Z,6.80
2023-01-17T14:41:26.774Z,6.80
2023-01-17T14:43:55.705Z,6.80
2023-01-17T14:46:29.399Z,6.80
2023-01-17T14:49:02.858Z,6.80
2023-01-17T14:51:35.044Z,6.80
2023-01-17T14:54:06.364Z,6.80
2023-01-17T14:56:34.758Z,6.80
2023-01-17T14:59:17.109Z,6.80
2023-01-17T15:02:06.516Z,6.80
2023-01-17T15:04:39.624Z,6.80
2023-01-17T15:07:08.748Z,6.80
2023-01-17T15:09:38.903Z,6.80
2023-01-17T15:12:10.865Z,6.80
2023-01-17T15:14:42.995Z,6.80
2023-01-17T15:17:19.448Z,6.80
2023-01-17T15:19:50.657Z,6.80
2023-01-17T15:22:20.003Z,6.80
2023-01-17T15:24:49.013Z,6.80
2023-01-17T15:27:17.919Z,6.80
2023-01-17T15:29:47.341Z,6.80
2023-01-17T15:32:20.544Z,6.80
2023-01-17T15:34:51.375Z,6.80
2023-01-17T15:37:29.641Z,6.80
2023-01-17T15:40:05.721Z,6.80
2023-01-17T15:42:37.445Z,6.80
2023-01-17T15:45:10.409Z,6.80
2023-01-17T15:47:40.526Z,6.80
2023-01-17T15:50:30.219Z,6.80
2023-01-17T15:53:00.918Z,6.80
2023-01-17T15:55:33.444Z,6.80
2023-01-17T15:58:02.577Z,6.80
2023-01-17T16:00:37.846Z,6.80
2023-01-17T16:03:23.732Z,6.80
2023-01-17T16:05:53.397Z,6.70
2023-01-17T16:08:39.667Z,6.80
2023-01-17T16:11:11.748Z,6.80
2023-01-17T16:13:42.394Z,6.80
2023-01-17T16:16:19.606Z,6.70
2023-01-17T16:18:50.922Z,6.80
2023-01-17T16:21:22.590Z,6.70
2023-01-17T16:23:51.417Z,6.70
2023-01-17T16:26:20.199Z,6.70
2023-01-17T16:28:49.047Z,6.80
2023-01-17T16:31:17.821Z,6.70
2023-01-17T16:33:46.949Z,6.70
2023-01-17T16:36:17.677Z,6.70
2023-01-17T16:38:49.615Z,6.70
2023-01-17T16:41:18.764Z,6.70
2023-01-17T16:43:48.278Z,6.80
2023-01-17T16:46:20.448Z,6.70
2023-01-17T16:48:48.988Z,6.70
2023-01-17T16:51:19.395Z,6.70
2023-01-17T16:53:48.393Z,6.70
2023-01-17T16:56:19.116Z,6.70
2023-01-17T16:58:47.621Z,6.70
2023-01-17T17:01:21.171Z,6.70
2023-01-17T17:03:50.223Z,6.70
2023-01-17T17:06:20.260Z,6.70
2023-01-17T17:08:49.043Z,6.70
2023-01-17T17:11:19.802Z,6.70
2023-01-17T17:13:49.746Z,6.70
2023-01-17T17:16:20.697Z,6.70
2023-01-17T17:18:55.915Z,6.70
2023-01-17T17:21:26.458Z,6.70
2023-01-17T17:23:58.177Z,6.70
2023-01-17T17:26:30.871Z,6.70
2023-01-17T17:28:59.596Z,6.70
2023-01-17T17:31:28.814Z,6.70
2023-01-17T17:34:00.535Z,6.70
2023-01-17T17:36:31.126Z,6.70
2023-01-17T17:39:00.050Z,6.70
2023-01-17T17:41:30.145Z,6.70
2023-01-17T17:43:59.179Z,6.70
2023-01-17T17:46:29.278Z,6.70
2023-01-17T17:48:58.866Z,6.70
2023-01-17T17:51:30.554Z,6.70
2023-01-17T17:54:01.662Z,6.70
2023-01-17T17:56:31.849Z,6.70
2023-01-17T17:59:01.577Z,6.70
2023-01-17T18:01:30.522Z,6.70
2023-01-17T18:04:03.878Z,6.70
2023-01-17T18:06:34.794Z,6.70
2023-01-17T18:09:03.511Z,6.70
2023-01-17T18:11:33.255Z,6.60
2023-01-17T18:14:04.675Z,6.60
2023-01-17T18:16:36.395Z,6.50
2023-01-17T18:19:05.765Z,6.50
2023-01-17T18:21:37.589Z,6.50
2023-01-17T18:24:08.485Z,6.50
2023-01-17T18:26:38.666Z,6.50
2023-01-17T18:29:08.660Z,6.50
2023-01-17T18:31:37.190Z,6.60
2023-01-17T18:34:07.855Z,6.60
2023-01-17T18:36:38.646Z,6.50
2023-01-17T18:39:12.976Z,6.60
2023-01-17T18:41:41.685Z,6.60
2023-01-17T18:44:12.947Z,6.60
2023-01-17T18:46:42.363Z,6.60
2023-01-17T18:49:13.193Z,6.60
2023-01-17T18:51:46.616Z,6.60
2023-01-17T18:54:15.196Z,6.60
2023-01-17T18:56:45.151Z,6.60
2023-01-17T18:59:15.415Z,6.60
2023-01-17T19:01:44.749Z,6.60
2023-01-17T19:04:15.634Z,6.60
2023-01-17T19:06:47.496Z,6.60
2023-01-17T19:09:17.040Z,6.60
2023-01-17T19:11:47.630Z,6.60
2023-01-17T19:14:16.546Z,6.60
2023-01-17T19:16:45.095Z,6.60
2023-01-17T19:19:15.784Z,6.60
2023-01-17T19:21:46.195Z,6.60
2023-01-17T19:24:14.697Z,6.60
2023-01-17T19:26:43.505Z,6.60
2023-01-17T19:29:12.224Z,6.60
2023-01-17T19:31:42.960Z,6.60
2023-01-17T19:34:14.847Z,6.60
2023-01-17T19:36:45.056Z,6.60
2023-01-17T19:39:13.511Z,6.60
2023-01-17T19:41:44.738Z,6.60
2023-01-17T19:44:15.269Z,6.60
2023-01-17T19:46:44.184Z,6.60
2023-01-17T19:49:12.742Z,6.60
2023-01-17T19:51:41.264Z,6.60
2023-01-17T19:54:11.299Z,6.60
2023-01-17T19:56:39.775Z,6.60
2023-01-17T19:59:08.325Z,6.50
2023-01-17T20:01:37.048Z,6.60
2023-01-17T20:04:06.036Z,6.60
2023-01-17T20:06:36.882Z,6.60
2023-01-17T20:09:06.901Z,6.60
2023-01-17T20:11:37.348Z,6.60
2023-01-17T20:14:06.591Z,6.60
2023-01-17T20:16:37.619Z,6.60
2023-01-17T20:19:06.561Z,6.60
2023-01-17T20:21:35.227Z,6.60
2023-01-17T20:24:04.387Z,6.60
2023-01-17T20:26:37.821Z,6.60
2023-01-17T20:29:11.534Z,6.60
2023-01-17T20:31:41.172Z,6.50
2023-01-17T20:34:12.358Z,6.50
2023-01-17T20:36:41.774Z,6.60
2023-01-17T20:39:11.131Z,6.50
2023-01-17T20:41:41.671Z,6.60
2023-01-17T20:44:16.929Z,6.50
2023-01-17T20:46:46.358Z,6.60
2023-01-17T20:49:16.373Z,6.50
2023-01-17T20:51:45.714Z,6.50
2023-01-17T20:54:16.280Z,6.50
2023-01-17T20:56:47.439Z,6.50
2023-01-17T20:59:18.936Z,6.50
2023-01-17T21:01:47.849Z,6.50
2023-01-17T21:04:18.015Z,6.50
2023-01-17T21:06:47.623Z,6.50
2023-01-17T21:09:17.310Z,6.50
2023-01-17T21:11:45.979Z,6.50
2023-01-17T21:14:16.149Z,6.50
2023-01-17T21:16:44.749Z,6.50
2023-01-17T21:19:15.808Z,6.50
2023-01-17T21:21:44.454Z,6.50
2023-01-17T21:24:18.496Z,6.50
2023-01-17T21:26:47.533Z,6.50
2023-01-17T21:29:17.387Z,6.50
2023-01-17T21:31:45.980Z,6.50
2023-01-17T21:34:14.834Z,6.50
2023-01-17T21:36:44.020Z,6.50
2023-01-17T21:39:15.803Z,6.50
2023-01-17T21:41:47.941Z,6.50
2023-01-17T21:44:20.292Z,6.50
2023-01-17T21:46:54.146Z,6.50
2023-01-17T21:49:24.553Z,6.50
2023-01-17T21:52:10.593Z,6.50
2023-01-17T21:54:56.279Z,6.50
2023-01-17T21:57:42.219Z,6.50
2023-01-17T22:00:15.535Z,6.50
2023-01-17T22:02:45.050Z,6.50
2023-01-17T22:05:14.308Z,6.50
2023-01-17T22:08:03.479Z,6.50
2023-01-17T22:10:32.546Z,6.50
2023-01-17T22:13:01.057Z,6.50
2023-01-17T22:15:30.928Z,6.50
2023-01-17T22:17:59.814Z,6.50
2023-01-17T22:20:28.453Z,6.50
2023-01-17T22:22:57.332Z,6.40
2023-01-17T22:25:26.186Z,6.40
2023-01-17T22:27:54.990Z,6.40
2023-01-17T22:30:23.845Z,6.40
2023-01-17T22:32:54.490Z,6.40
2023-01-17T22:35:23.900Z,6.40
2023-01-17T22:37:54.801Z,6.40
2023-01-17T22:40:23.692Z,6.40
2023-01-17T22:42:52.241Z,6.40
2023-01-17T22:45:20.985Z,6.40
2023-01-17T22:47:49.474Z,6.40
2023-01-17T22:50:19.561Z,6.40
2023-01-17T22:52:48.008Z,6.40
2023-01-17T22:55:16.618Z,6.40
2023-01-17T22:57:46.622Z,6.40
2023-01-17T23:00:16.523Z,6.40
2023-01-17T23:02:45.861Z,6.40
2023-01-17T23:05:15.016Z,6.40
2023-01-17T23:07:44.981Z,6.40
2023-01-17T23:10:34.956Z,6.40
2023-01-17T23:13:03.402Z,6.40
2023-01-17T23:15:49.172Z,6.40
2023-01-17T23:18:34.853Z,6.40
2023-01-17T23:21:03.449Z,6.40
2023-01-17T23:23:33.793Z,6.40
2023-01-17T23:26:02.948Z,6.40
2023-01-17T23:28:30.487Z,6.40
2023-01-17T23:31:05.048Z,6.40
2023-01-17T23:33:33.690Z,6.40
2023-01-17T23:36:02.243Z,6.40
2023-01-17T23:38:33.991Z,6.40
2023-01-17T23:41:22.298Z,6.40
2023-01-17T23:43:54.666Z,6.40
2023-01-17T23:46:23.985Z,6.40
2023-01-17T23:48:52.748Z,6.40
2023-01-17T23:51:21.318Z,6.30
2023-01-17T23:53:57.461Z,6.30
2023-01-17T23:56:26.178Z,6.30
2023-01-17T23:58:54.681Z,6.30
